createdAt,value
2022-11-24T00:00:03.273Z,5.17
2022-11-24T00:00:13.174Z,5.18
2022-11-24T00:00:23.174Z,5.18
2022-11-24T00:00:34.624Z,5.17
2022-11-24T00:00:43.154Z,5.16
2022-11-24T00:00:53.202Z,5.18
2022-11-24T00:01:04.612Z,5.17
2022-11-24T00:01:14.624Z,5.16
2022-11-24T00:01:23.181Z,5.16
2022-11-24T00:01:33.152Z,5.17
2022-11-24T00:01:43.183Z,5.16
2022-11-24T00:01:53.204Z,5.16
2022-11-24T00:02:04.083Z,5.16
2022-11-24T00:02:14.694Z,5.15
2022-11-24T00:02:23.347Z,5.15
2022-11-24T00:02:33.329Z,5.15
2022-11-24T00:02:44.701Z,5.14
2022-11-24T00:02:53.220Z,5.13
2022-11-24T00:03:03.670Z,5.14
2022-11-24T00:03:14.073Z,5.14
2022-11-24T00:03:24.658Z,5.13
2022-11-24T00:03:34.697Z,5.12
2022-11-24T00:03:44.642Z,5.13
2022-11-24T00:03:54.107Z,5.12
2022-11-24T00:04:04.630Z,5.13
2022-11-24T00:04:14.604Z,5.13
2022-11-24T00:04:24.572Z,5.11
2022-11-24T00:04:33.310Z,5.10
2022-11-24T00:04:44.593Z,5.10
2022-11-24T00:04:53.132Z,5.11
2022-11-24T00:05:04.592Z,5.10
2022-11-24T00:05:14.573Z,5.10
2022-11-24T00:05:23.134Z,5.10
2022-11-24T00:05:34.576Z,5.11
2022-11-24T00:05:44.593Z,5.10
2022-11-24T00:05:53.137Z,5.10
2022-11-24T00:06:03.147Z,5.12
2022-11-24T00:06:14.585Z,5.11
2022-11-24T00:06:24.575Z,5.09
2022-11-24T00:06:33.122Z,5.08
2022-11-24T00:06:44.086Z,5.09
2022-11-24T00:06:53.155Z,5.09
2022-11-24T00:07:04.564Z,5.09
2022-11-24T00:07:14.985Z,5.08
2022-11-24T00:07:25.305Z,5.05
2022-11-24T00:07:33.155Z,5.06
2022-11-24T00:07:44.637Z,5.09
2022-11-24T00:07:54.656Z,5.06
2022-11-24T00:08:03.118Z,5.06
2022-11-24T00:08:13.142Z,5.06
2022-11-24T00:08:23.924Z,5.06
2022-11-24T00:08:34.576Z,5.05
2022-11-24T00:08:44.573Z,5.05
2022-11-24T00:08:54.545Z,5.05
2022-11-24T00:09:03.106Z,5.05
2022-11-24T00:09:14.105Z,5.06
2022-11-24T00:09:24.555Z,5.04
2022-11-24T00:09:33.116Z,5.04
2022-11-24T00:09:43.275Z,5.05
2022-11-24T00:09:53.376Z,5.04
2022-11-24T00:10:03.755Z,5.04
2022-11-24T00:10:13.797Z,5.04
2022-11-24T00:10:24.535Z,5.03
2022-11-24T00:10:33.667Z,5.02
2022-11-24T00:10:43.807Z,5.03
2022-11-24T00:10:53.836Z,5.03
2022-11-24T00:11:03.871Z,5.03
2022-11-24T00:11:13.803Z,5.03
2022-11-24T00:11:23.842Z,5.04
2022-11-24T00:11:33.066Z,5.03
2022-11-24T00:11:43.186Z,5.04
2022-11-24T00:11:53.065Z,5.04
2022-11-24T00:12:03.878Z,5.03
2022-11-24T00:12:13.817Z,5.03
2022-11-24T00:12:23.838Z,5.03
2022-11-24T00:12:34.517Z,5.03
2022-11-24T00:12:43.816Z,5.03
2022-11-24T00:12:53.066Z,5.04
2022-11-24T00:13:03.885Z,5.04
2022-11-24T00:13:13.833Z,5.03
2022-11-24T00:13:23.845Z,5.03
2022-11-24T00:13:33.890Z,5.04
2022-11-24T00:13:43.926Z,5.03
2022-11-24T00:13:53.054Z,5.03
2022-11-24T00:14:03.910Z,5.03
2022-11-24T00:14:13.915Z,5.02
2022-11-24T00:14:23.038Z,5.02
2022-11-24T00:14:34.076Z,5.03
2022-11-24T00:14:43.046Z,5.02
2022-11-24T00:14:53.127Z,5.04
2022-11-24T00:15:03.094Z,5.04
2022-11-24T00:15:13.056Z,5.04
2022-11-24T00:15:23.066Z,5.04
2022-11-24T00:15:34.515Z,5.04
2022-11-24T00:15:43.999Z,5.04
2022-11-24T00:15:54.555Z,5.05
2022-11-24T00:16:04.494Z,5.05
2022-11-24T00:16:14.673Z,5.05
2022-11-24T00:16:24.591Z,5.06
2022-11-24T00:16:34.576Z,5.06
2022-11-24T00:16:43.100Z,5.06
2022-11-24T00:16:54.560Z,5.07
2022-11-24T00:17:03.181Z,5.06
2022-11-24T00:17:13.847Z,5.07
2022-11-24T00:17:23.046Z,5.07
2022-11-24T00:17:34.515Z,5.08
2022-11-24T00:17:44.526Z,5.06
2022-11-24T00:17:53.052Z,5.07
2022-11-24T00:18:04.506Z,5.09
2022-11-24T00:18:14.487Z,5.07
2022-11-24T00:18:23.035Z,5.07
2022-11-24T00:18:33.046Z,5.08
2022-11-24T00:18:44.494Z,5.08
2022-11-24T00:18:53.064Z,5.07
2022-11-24T00:19:03.047Z,5.09
2022-11-24T00:19:19.476Z,5.08
2022-11-24T00:19:25.535Z,5.03
2022-11-24T00:19:34.107Z,5.06
2022-11-24T00:19:44.076Z,5.07
2022-11-24T00:19:55.526Z,5.06
2022-11-24T00:20:04.067Z,5.06
2022-11-24T00:20:14.103Z,5.07
2022-11-24T00:20:25.525Z,5.05
2022-11-24T00:20:34.074Z,5.05
2022-11-24T00:20:45.527Z,5.06
2022-11-24T00:20:54.078Z,5.05
2022-11-24T00:21:04.086Z,5.07
2022-11-24T00:21:14.068Z,5.07
2022-11-24T00:21:24.310Z,5.06
2022-11-24T00:21:35.498Z,5.05
2022-11-24T00:21:44.085Z,5.05
2022-11-24T00:21:55.566Z,5.06
2022-11-24T00:22:05.506Z,5.05
2022-11-24T00:22:15.496Z,5.05
2022-11-24T00:22:24.077Z,5.05
2022-11-24T00:22:34.066Z,5.06
2022-11-24T00:22:45.547Z,5.05
2022-11-24T00:22:54.066Z,5.03
2022-11-24T00:23:04.058Z,5.04
2022-11-24T00:23:14.060Z,5.04
2022-11-24T00:23:25.518Z,5.03
2022-11-24T00:23:35.500Z,5.02
2022-11-24T00:23:45.487Z,5.02
2022-11-24T00:23:54.058Z,5.02
2022-11-24T00:24:04.068Z,5.03
2022-11-24T00:24:15.237Z,5.03
2022-11-24T00:24:24.065Z,5.02
2022-11-24T00:24:34.373Z,5.04
2022-11-24T00:24:45.517Z,5.03
2022-11-24T00:24:54.028Z,5.03
2022-11-24T00:25:04.038Z,5.04
2022-11-24T00:25:14.869Z,5.03
2022-11-24T00:25:24.147Z,5.02
2022-11-24T00:25:34.079Z,5.04
2022-11-24T00:25:45.472Z,5.03
2022-11-24T00:25:54.143Z,5.02
2022-11-24T00:26:04.077Z,5.03
2022-11-24T00:26:14.108Z,5.04
2022-11-24T00:26:24.139Z,5.04
2022-11-24T00:26:34.084Z,5.03
2022-11-24T00:26:44.112Z,5.03
2022-11-24T00:26:54.145Z,5.03
2022-11-24T00:27:04.101Z,5.04
2022-11-24T00:27:14.168Z,5.04
2022-11-24T00:27:24.149Z,5.04
2022-11-24T00:27:34.084Z,5.04
2022-11-24T00:27:44.122Z,5.03
2022-11-24T00:27:54.149Z,5.03
2022-11-24T00:28:04.207Z,5.04
2022-11-24T00:28:14.118Z,5.04
2022-11-24T00:28:24.155Z,5.04
2022-11-24T00:28:33.997Z,5.04
2022-11-24T00:28:44.119Z,5.04
2022-11-24T00:28:54.160Z,5.03
2022-11-24T00:29:03.988Z,5.04
2022-11-24T00:29:14.128Z,5.04
2022-11-24T00:29:23.997Z,5.04
2022-11-24T00:29:35.469Z,5.04
2022-11-24T00:29:45.457Z,5.04
2022-11-24T00:29:54.018Z,5.04
2022-11-24T00:30:04.026Z,5.05
2022-11-24T00:30:14.170Z,5.05
2022-11-24T00:30:25.477Z,5.05
2022-11-24T00:30:34.257Z,5.05
2022-11-24T00:30:44.038Z,5.06
2022-11-24T00:30:55.474Z,5.06
2022-11-24T00:31:04.107Z,5.06
2022-11-24T00:31:17.222Z,5.07
2022-11-24T00:31:25.492Z,5.02
2022-11-24T00:31:35.645Z,5.02
2022-11-24T00:31:44.020Z,5.03
2022-11-24T00:31:54.018Z,5.04
2022-11-24T00:32:04.021Z,5.03
2022-11-24T00:32:13.988Z,5.03
2022-11-24T00:32:24.024Z,5.03
2022-11-24T00:32:34.929Z,5.04
2022-11-24T00:32:44.040Z,5.04
2022-11-24T00:32:54.021Z,5.05
2022-11-24T00:33:05.448Z,5.05
2022-11-24T00:33:14.000Z,5.04
2022-11-24T00:33:23.979Z,5.05
2022-11-24T00:33:35.440Z,5.05
2022-11-24T00:33:43.970Z,5.05
2022-11-24T00:33:55.440Z,5.07
2022-11-24T00:34:05.439Z,5.06
2022-11-24T00:34:14.940Z,5.07
2022-11-24T00:34:23.978Z,5.07
2022-11-24T00:34:35.762Z,5.08
2022-11-24T00:34:45.422Z,5.07
2022-11-24T00:34:54.950Z,5.08
2022-11-24T00:35:03.991Z,5.09
2022-11-24T00:35:13.988Z,5.10
2022-11-24T00:35:23.989Z,5.09
2022-11-24T00:35:34.003Z,5.09
2022-11-24T00:35:45.418Z,5.09
2022-11-24T00:35:55.430Z,5.09
2022-11-24T00:36:03.950Z,5.09
2022-11-24T00:36:14.010Z,5.10
2022-11-24T00:36:23.953Z,5.09
2022-11-24T00:36:35.447Z,5.10
2022-11-24T00:36:43.972Z,5.10
2022-11-24T00:36:54.774Z,5.11
2022-11-24T00:37:03.973Z,5.10
2022-11-24T00:37:14.020Z,5.12
2022-11-24T00:37:23.990Z,5.12
2022-11-24T00:37:33.988Z,5.12
2022-11-24T00:37:45.420Z,5.12
2022-11-24T00:37:53.969Z,5.12
2022-11-24T00:38:03.961Z,5.13
2022-11-24T00:38:15.410Z,5.12
2022-11-24T00:38:24.888Z,5.12
2022-11-24T00:38:35.421Z,5.13
2022-11-24T00:38:45.391Z,5.12
2022-11-24T00:38:53.951Z,5.13
2022-11-24T00:39:03.992Z,5.14
2022-11-24T00:39:15.414Z,5.14
2022-11-24T00:39:25.432Z,5.14
2022-11-24T00:39:34.780Z,5.14
2022-11-24T00:39:45.401Z,5.15
2022-11-24T00:39:55.391Z,5.14
2022-11-24T00:40:05.461Z,5.15
2022-11-24T00:40:14.916Z,5.16
2022-11-24T00:40:25.388Z,5.16
2022-11-24T00:40:35.390Z,5.16
2022-11-24T00:40:43.929Z,5.17
2022-11-24T00:40:55.401Z,5.18
2022-11-24T00:41:05.381Z,5.17
2022-11-24T00:41:15.380Z,5.17
2022-11-24T00:41:24.881Z,5.17
2022-11-24T00:41:35.380Z,5.17
2022-11-24T00:41:43.976Z,5.17
2022-11-24T00:41:55.390Z,5.18
2022-11-24T00:42:05.398Z,5.18
2022-11-24T00:42:13.920Z,5.20
2022-11-24T00:42:23.923Z,5.20
2022-11-24T00:42:35.393Z,5.20
2022-11-24T00:42:45.381Z,5.19
2022-11-24T00:42:54.713Z,5.21
2022-11-24T00:43:03.930Z,5.22
2022-11-24T00:43:15.390Z,5.22
2022-11-24T00:43:23.921Z,5.22
2022-11-24T00:43:33.910Z,5.23
2022-11-24T00:43:43.921Z,5.23
2022-11-24T00:43:53.935Z,5.24
2022-11-24T00:44:03.938Z,5.23
2022-11-24T00:44:13.889Z,5.23
2022-11-24T00:44:23.921Z,5.25
2022-11-24T00:44:34.200Z,5.24
2022-11-24T00:44:44.122Z,5.25
2022-11-24T00:44:54.482Z,5.25
2022-11-24T00:45:13.302Z,5.25
2022-11-24T00:45:14.426Z,5.21
2022-11-24T00:45:23.901Z,5.24
2022-11-24T00:45:34.558Z,5.24
2022-11-24T00:45:44.588Z,5.24
2022-11-24T00:45:54.780Z,5.24
2022-11-24T00:46:05.548Z,5.25
2022-11-24T00:46:15.443Z,5.25
2022-11-24T00:46:24.032Z,5.25
2022-11-24T00:46:35.544Z,5.26
2022-11-24T00:46:44.020Z,5.25
2022-11-24T00:46:54.009Z,5.27
2022-11-24T00:47:04.715Z,5.27
2022-11-24T00:47:14.039Z,5.27
2022-11-24T00:47:25.434Z,5.27
2022-11-24T00:47:33.872Z,5.26
2022-11-24T00:47:43.956Z,5.28
2022-11-24T00:47:54.495Z,5.27
2022-11-24T00:48:03.861Z,5.26
2022-11-24T00:48:13.888Z,5.27
2022-11-24T00:48:23.883Z,5.28
2022-11-24T00:48:35.332Z,5.28
2022-11-24T00:48:43.880Z,5.27
2022-11-24T00:48:55.334Z,5.28
2022-11-24T00:49:03.869Z,5.28
2022-11-24T00:49:15.334Z,5.29
2022-11-24T00:49:25.323Z,5.29
2022-11-24T00:49:33.890Z,5.29
2022-11-24T00:49:44.053Z,5.30
2022-11-24T00:49:55.341Z,5.30
2022-11-24T00:50:04.813Z,5.30
2022-11-24T00:50:13.870Z,5.30
2022-11-24T00:50:24.612Z,5.31
2022-11-24T00:50:35.303Z,5.30
2022-11-24T00:50:45.314Z,5.31
2022-11-24T00:50:55.327Z,5.31
2022-11-24T00:51:03.867Z,5.31
2022-11-24T00:51:13.894Z,5.32
2022-11-24T00:51:23.855Z,5.32
2022-11-24T00:51:35.302Z,5.32
2022-11-24T00:51:45.312Z,5.31
2022-11-24T00:51:54.622Z,5.32
2022-11-24T00:52:03.893Z,5.33
2022-11-24T00:52:13.861Z,5.34
2022-11-24T00:52:24.824Z,5.34
2022-11-24T00:52:33.870Z,5.35
2022-11-24T00:52:43.853Z,5.36
2022-11-24T00:52:54.781Z,5.36
2022-11-24T00:53:03.843Z,5.36
2022-11-24T00:53:13.894Z,5.38
2022-11-24T00:53:23.913Z,5.38
2022-11-24T00:53:35.282Z,5.38
2022-11-24T00:53:43.884Z,5.38
2022-11-24T00:53:53.933Z,5.39
2022-11-24T00:54:03.856Z,5.39
2022-11-24T00:54:13.884Z,5.39
2022-11-24T00:54:23.819Z,5.40
2022-11-24T00:54:34.313Z,5.39
2022-11-24T00:54:43.961Z,5.39
2022-11-24T00:54:53.924Z,5.41
2022-11-24T00:55:03.963Z,5.40
2022-11-24T00:55:13.815Z,5.40
2022-11-24T00:55:23.932Z,5.42
2022-11-24T00:55:33.963Z,5.41
2022-11-24T00:55:44.003Z,5.42
2022-11-24T00:55:54.032Z,5.42
2022-11-24T00:56:05.274Z,5.42
2022-11-24T00:56:14.002Z,5.42
2022-11-24T00:56:24.042Z,5.44
2022-11-24T00:56:35.274Z,5.42
2022-11-24T00:56:43.834Z,5.43
2022-11-24T00:56:54.044Z,5.45
2022-11-24T00:57:03.805Z,5.44
2022-11-24T00:57:13.853Z,5.45
2022-11-24T00:57:23.852Z,5.45
2022-11-24T00:57:35.324Z,5.45
2022-11-24T00:57:45.254Z,5.45
2022-11-24T00:57:53.817Z,5.46
2022-11-24T00:58:05.264Z,5.48
2022-11-24T00:58:14.723Z,5.46
2022-11-24T00:58:23.821Z,5.47
2022-11-24T00:58:33.828Z,5.47
2022-11-24T00:58:45.263Z,5.48
2022-11-24T00:58:55.264Z,5.47
2022-11-24T00:59:03.809Z,5.48
2022-11-24T00:59:13.820Z,5.49
2022-11-24T00:59:24.663Z,5.48
2022-11-24T00:59:35.256Z,5.49
2022-11-24T00:59:45.264Z,5.49
2022-11-24T00:59:53.799Z,5.49
2022-11-24T01:00:05.247Z,5.50
2022-11-24T01:00:15.264Z,5.49
2022-11-24T01:00:24.810Z,5.49
2022-11-24T01:00:35.253Z,5.50
2022-11-24T01:00:45.245Z,5.50
2022-11-24T01:00:55.320Z,5.50
2022-11-24T01:01:05.248Z,5.51
2022-11-24T01:01:13.849Z,5.52
2022-11-24T01:01:23.998Z,5.52
2022-11-24T01:01:35.256Z,5.52
2022-11-24T01:01:45.398Z,5.52
2022-11-24T01:01:55.360Z,5.52
2022-11-24T01:02:05.294Z,5.52
2022-11-24T01:02:13.820Z,5.52
2022-11-24T01:02:25.291Z,5.55
2022-11-24T01:02:35.283Z,5.53
2022-11-24T01:02:44.773Z,5.54
2022-11-24T01:02:55.280Z,5.54
2022-11-24T01:03:04.642Z,5.55
2022-11-24T01:03:13.795Z,5.54
2022-11-24T01:03:25.244Z,5.55
2022-11-24T01:03:34.739Z,5.54
2022-11-24T01:03:45.244Z,5.55
2022-11-24T01:03:55.230Z,5.55
2022-11-24T01:04:05.237Z,5.56
2022-11-24T01:04:13.796Z,5.56
2022-11-24T01:04:24.695Z,5.57
2022-11-24T01:04:34.023Z,5.57
2022-11-24T01:04:43.803Z,5.57
2022-11-24T01:04:55.227Z,5.57
2022-11-24T01:05:05.240Z,5.56
2022-11-24T01:05:15.833Z,5.57
2022-11-24T01:05:25.206Z,5.56
2022-11-24T01:05:33.756Z,5.57
2022-11-24T01:05:45.225Z,5.58
2022-11-24T01:05:53.756Z,5.58
2022-11-24T01:06:03.765Z,5.59
2022-11-24T01:06:14.303Z,5.59
2022-11-24T01:06:23.733Z,5.59
2022-11-24T01:06:33.757Z,5.60
2022-11-24T01:06:43.795Z,5.60
2022-11-24T01:06:54.706Z,5.60
2022-11-24T01:07:05.206Z,5.60
2022-11-24T01:07:13.770Z,5.60
2022-11-24T01:07:24.457Z,5.62
2022-11-24T01:07:33.755Z,5.61
2022-11-24T01:07:43.800Z,5.61
2022-11-24T01:07:54.609Z,5.61
2022-11-24T01:08:05.184Z,5.61
2022-11-24T01:08:13.748Z,5.62
2022-11-24T01:08:23.786Z,5.63
2022-11-24T01:08:34.563Z,5.62
2022-11-24T01:08:43.746Z,5.61
2022-11-24T01:08:55.206Z,5.63
2022-11-24T01:09:05.243Z,5.63
2022-11-24T01:09:13.974Z,5.64
2022-11-24T01:09:24.832Z,5.65
2022-11-24T01:09:35.223Z,5.65
2022-11-24T01:09:45.232Z,5.65
2022-11-24T01:09:54.695Z,5.65
2022-11-24T01:10:05.210Z,5.66
2022-11-24T01:10:14.685Z,5.66
2022-11-24T01:10:23.759Z,5.66
2022-11-24T01:10:35.193Z,5.68
2022-11-24T01:10:45.196Z,5.66
2022-11-24T01:10:55.185Z,5.67
2022-11-24T01:11:05.189Z,5.68
2022-11-24T01:11:13.726Z,5.68
2022-11-24T01:11:23.744Z,5.70
2022-11-24T01:11:35.188Z,5.70
2022-11-24T01:11:45.193Z,5.69
2022-11-24T01:11:53.712Z,5.70
2022-11-24T01:12:05.186Z,5.71
2022-11-24T01:12:15.168Z,5.71
2022-11-24T01:12:25.190Z,5.71
2022-11-24T01:12:34.667Z,5.72
2022-11-24T01:12:43.736Z,5.72
2022-11-24T01:12:53.716Z,5.73
2022-11-24T01:13:05.199Z,5.73
2022-11-24T01:13:15.167Z,5.72
2022-11-24T01:13:23.720Z,5.73
2022-11-24T01:13:35.197Z,5.74
2022-11-24T01:13:45.178Z,5.73
2022-11-24T01:13:53.717Z,5.74
2022-11-24T01:14:05.177Z,5.75
2022-11-24T01:14:13.728Z,5.74
2022-11-24T01:14:23.717Z,5.76
2022-11-24T01:14:34.015Z,5.76
2022-11-24T01:14:45.147Z,5.76
2022-11-24T01:14:55.157Z,5.75
2022-11-24T01:15:03.711Z,5.76
2022-11-24T01:15:13.685Z,5.77
2022-11-24T01:15:23.706Z,5.77
2022-11-24T01:15:35.209Z,5.77
2022-11-24T01:15:43.777Z,5.77
2022-11-24T01:15:54.363Z,5.79
2022-11-24T01:16:05.241Z,5.78
2022-11-24T01:16:15.200Z,5.79
2022-11-24T01:16:23.764Z,5.79
2022-11-24T01:16:34.548Z,5.81
2022-11-24T01:16:45.180Z,5.80
2022-11-24T01:16:53.700Z,5.79
2022-11-24T01:17:04.194Z,5.81
2022-11-24T01:17:15.146Z,5.81
2022-11-24T01:17:25.156Z,5.80
2022-11-24T01:17:33.691Z,5.82
2022-11-24T01:17:45.147Z,5.84
2022-11-24T01:17:53.727Z,5.82
2022-11-24T01:18:05.118Z,5.84
2022-11-24T01:18:13.685Z,5.83
2022-11-24T01:18:24.630Z,5.84
2022-11-24T01:18:35.129Z,5.84
2022-11-24T01:18:45.117Z,5.83
2022-11-24T01:18:53.685Z,5.84
2022-11-24T01:19:05.158Z,5.86
2022-11-24T01:19:14.556Z,5.86
2022-11-24T01:19:23.686Z,5.87
2022-11-24T01:19:34.209Z,5.86
2022-11-24T01:19:45.127Z,5.87
2022-11-24T01:19:55.130Z,5.86
2022-11-24T01:20:03.681Z,5.86
2022-11-24T01:20:13.706Z,5.88
2022-11-24T01:20:23.679Z,5.88
2022-11-24T01:20:34.146Z,5.88
2022-11-24T01:20:43.666Z,5.88
2022-11-24T01:20:54.647Z,5.88
2022-11-24T01:21:09.662Z,5.88
2022-11-24T01:21:14.769Z,5.84
2022-11-24T01:21:25.270Z,5.87
2022-11-24T01:21:33.819Z,5.88
2022-11-24T01:21:43.857Z,5.89
2022-11-24T01:21:54.054Z,5.90
2022-11-24T01:22:05.258Z,5.90
2022-11-24T01:22:14.278Z,5.90
2022-11-24T01:22:24.211Z,5.92
2022-11-24T01:22:34.282Z,5.92
2022-11-24T01:22:43.838Z,5.92
2022-11-24T01:22:55.268Z,5.93
2022-11-24T01:23:05.270Z,5.93
2022-11-24T01:23:14.301Z,5.94
2022-11-24T01:23:24.318Z,5.94
2022-11-24T01:23:34.358Z,5.94
2022-11-24T01:23:43.814Z,5.95
2022-11-24T01:23:55.300Z,5.96
2022-11-24T01:24:04.393Z,5.96
2022-11-24T01:24:14.290Z,5.96
2022-11-24T01:24:24.456Z,5.97
2022-11-24T01:24:34.540Z,5.97
2022-11-24T01:24:45.260Z,5.96
2022-11-24T01:24:54.339Z,5.97
2022-11-24T01:25:04.368Z,5.99
2022-11-24T01:25:14.400Z,5.99
2022-11-24T01:25:23.798Z,5.98
2022-11-24T01:25:34.398Z,6.00
2022-11-24T01:25:44.307Z,6.00
2022-11-24T01:25:55.238Z,6.00
2022-11-24T01:26:04.478Z,6.00
2022-11-24T01:26:14.415Z,6.01
2022-11-24T01:26:24.448Z,6.01
2022-11-24T01:26:35.228Z,6.02
2022-11-24T01:26:44.771Z,6.01
2022-11-24T01:26:55.238Z,6.03
2022-11-24T01:27:04.481Z,6.03
2022-11-24T01:27:13.770Z,6.03
2022-11-24T01:27:24.459Z,6.04
2022-11-24T01:27:33.758Z,6.03
2022-11-24T01:27:43.836Z,6.04
2022-11-24T01:27:54.920Z,6.05
2022-11-24T01:28:04.930Z,6.04
2022-11-24T01:28:13.826Z,6.05
2022-11-24T01:28:23.798Z,6.05
2022-11-24T01:28:34.777Z,6.05
2022-11-24T01:28:47.183Z,6.04
2022-11-24T01:28:53.828Z,6.01
2022-11-24T01:29:05.239Z,6.04
2022-11-24T01:29:15.220Z,6.03
2022-11-24T01:29:25.237Z,6.05
2022-11-24T01:29:33.889Z,6.04
2022-11-24T01:29:43.759Z,6.06
2022-11-24T01:29:55.272Z,6.06
2022-11-24T01:30:03.820Z,6.05
2022-11-24T01:30:13.760Z,6.06
2022-11-24T01:30:25.228Z,6.06
2022-11-24T01:30:33.919Z,6.05
2022-11-24T01:30:43.774Z,6.07
2022-11-24T01:30:53.818Z,6.07
2022-11-24T01:31:04.731Z,6.07
2022-11-24T01:31:15.285Z,6.07
2022-11-24T01:31:25.281Z,6.07
2022-11-24T01:31:34.745Z,6.08
2022-11-24T01:31:45.237Z,6.09
2022-11-24T01:31:55.232Z,6.09
2022-11-24T01:32:05.221Z,6.10
2022-11-24T01:32:13.749Z,6.10
2022-11-24T01:32:25.231Z,6.11
2022-11-24T01:32:35.210Z,6.10
2022-11-24T01:32:45.212Z,6.11
2022-11-24T01:32:54.701Z,6.11
2022-11-24T01:33:03.762Z,6.11
2022-11-24T01:33:13.772Z,6.11
2022-11-24T01:33:23.760Z,6.11
2022-11-24T01:33:33.774Z,6.11
2022-11-24T01:33:43.771Z,6.11
2022-11-24T01:33:55.211Z,6.12
2022-11-24T01:34:05.182Z,6.11
2022-11-24T01:34:14.080Z,6.12
2022-11-24T01:34:23.750Z,6.13
2022-11-24T01:34:34.051Z,6.13
2022-11-24T01:34:43.740Z,6.12
2022-11-24T01:34:53.754Z,6.12
2022-11-24T01:35:03.836Z,6.13
2022-11-24T01:35:13.720Z,6.13
2022-11-24T01:35:23.765Z,6.13
2022-11-24T01:35:33.748Z,6.14
2022-11-24T01:35:45.211Z,6.14
2022-11-24T01:35:54.482Z,6.13
2022-11-24T01:36:05.193Z,6.14
2022-11-24T01:36:15.179Z,6.14
2022-11-24T01:36:23.752Z,6.14
2022-11-24T01:36:33.752Z,6.15
2022-11-24T01:36:45.182Z,6.14
2022-11-24T01:36:53.734Z,6.14
2022-11-24T01:37:03.740Z,6.15
2022-11-24T01:37:15.181Z,6.14
2022-11-24T01:37:24.009Z,6.14
2022-11-24T01:37:35.165Z,6.15
2022-11-24T01:37:43.730Z,6.14
2022-11-24T01:37:55.181Z,6.14
2022-11-24T01:38:04.532Z,6.13
2022-11-24T01:38:15.181Z,6.13
2022-11-24T01:38:25.161Z,6.14
2022-11-24T01:38:35.189Z,6.14
2022-11-24T01:38:44.661Z,6.14
2022-11-24T01:38:55.181Z,6.14
2022-11-24T01:39:04.055Z,6.14
2022-11-24T01:39:15.142Z,6.14
2022-11-24T01:39:24.671Z,6.13
2022-11-24T01:39:33.712Z,6.13
2022-11-24T01:39:45.157Z,6.14
2022-11-24T01:39:54.129Z,6.13
2022-11-24T01:40:03.686Z,6.14
2022-11-24T01:40:15.164Z,6.14
2022-11-24T01:40:23.703Z,6.12
2022-11-24T01:40:35.171Z,6.14
2022-11-24T01:40:45.142Z,6.12
2022-11-24T01:40:55.173Z,6.13
2022-11-24T01:41:03.694Z,6.13
2022-11-24T01:41:13.716Z,6.15
2022-11-24T01:41:23.725Z,6.13
2022-11-24T01:41:33.692Z,6.13
2022-11-24T01:41:43.724Z,6.13
2022-11-24T01:41:55.164Z,6.13
2022-11-24T01:42:05.145Z,6.13
2022-11-24T01:42:13.672Z,6.14
2022-11-24T01:42:25.142Z,6.14
2022-11-24T01:42:33.701Z,6.13
2022-11-24T01:42:44.604Z,6.15
2022-11-24T01:42:55.133Z,6.14
2022-11-24T01:43:05.145Z,6.14
2022-11-24T01:43:13.704Z,6.15
2022-11-24T01:43:23.683Z,6.16
2022-11-24T01:43:35.157Z,6.15
2022-11-24T01:43:43.663Z,6.14
2022-11-24T01:43:53.680Z,6.15
2022-11-24T01:44:05.167Z,6.14
2022-11-24T01:44:15.122Z,6.13
2022-11-24T01:44:25.127Z,6.13
2022-11-24T01:44:35.450Z,6.13
2022-11-24T01:44:43.663Z,6.14
2022-11-24T01:44:53.662Z,6.15
2022-11-24T01:45:03.650Z,6.14
2022-11-24T01:45:13.664Z,6.14
2022-11-24T01:45:23.653Z,6.14
2022-11-24T01:45:35.105Z,6.14
2022-11-24T01:45:43.673Z,6.14
2022-11-24T01:45:53.697Z,6.15
2022-11-24T01:46:05.198Z,6.14
2022-11-24T01:46:13.743Z,6.14
2022-11-24T01:46:24.584Z,6.15
2022-11-24T01:46:35.208Z,6.15
2022-11-24T01:46:43.672Z,6.14
2022-11-24T01:46:55.093Z,6.15
2022-11-24T01:47:05.131Z,6.14
2022-11-24T01:47:13.642Z,6.14
2022-11-24T01:47:23.652Z,6.15
2022-11-24T01:47:35.102Z,6.14
2022-11-24T01:47:43.638Z,6.13
2022-11-24T01:47:53.680Z,6.14
2022-11-24T01:48:03.625Z,6.14
2022-11-24T01:48:13.669Z,6.14
2022-11-24T01:48:27.368Z,6.13
2022-11-24T01:48:33.645Z,6.10
2022-11-24T01:48:43.654Z,6.12
2022-11-24T01:48:53.653Z,6.13
2022-11-24T01:49:05.086Z,6.12
2022-11-24T01:49:14.483Z,6.11
2022-11-24T01:49:23.634Z,6.12
2022-11-24T01:49:33.668Z,6.12
2022-11-24T01:49:45.103Z,6.11
2022-11-24T01:49:54.425Z,6.10
2022-11-24T01:50:04.651Z,6.10
2022-11-24T01:50:14.983Z,6.09
2022-11-24T01:50:23.605Z,6.10
2022-11-24T01:50:33.621Z,6.10
2022-11-24T01:50:43.652Z,6.09
2022-11-24T01:50:55.065Z,6.09
2022-11-24T01:51:03.626Z,6.08
2022-11-24T01:51:13.663Z,6.09
2022-11-24T01:51:23.595Z,6.09
2022-11-24T01:51:33.626Z,6.08
2022-11-24T01:51:43.660Z,6.07
2022-11-24T01:51:53.704Z,6.07
2022-11-24T01:52:03.630Z,6.07
2022-11-24T01:52:15.287Z,6.07
2022-11-24T01:52:23.704Z,6.06
2022-11-24T01:52:34.595Z,6.06
2022-11-24T01:52:43.666Z,6.06
2022-11-24T01:52:53.811Z,6.06
2022-11-24T01:53:03.735Z,6.05
2022-11-24T01:53:13.774Z,6.06
2022-11-24T01:53:23.704Z,6.05
2022-11-24T01:53:33.596Z,6.05
2022-11-24T01:53:44.565Z,6.04
2022-11-24T01:53:53.713Z,6.05
2022-11-24T01:54:03.743Z,6.05
2022-11-24T01:54:15.044Z,6.04
2022-11-24T01:54:25.063Z,6.03
2022-11-24T01:54:34.199Z,6.03
2022-11-24T01:54:45.033Z,6.04
2022-11-24T01:54:53.604Z,6.03
2022-11-24T01:55:03.584Z,6.04
2022-11-24T01:55:13.603Z,6.03
2022-11-24T01:55:25.060Z,6.03
2022-11-24T01:55:35.071Z,6.01
2022-11-24T01:55:45.044Z,6.01
2022-11-24T01:55:53.597Z,6.01
2022-11-24T01:56:03.593Z,6.02
2022-11-24T01:56:15.052Z,6.01
2022-11-24T01:56:25.034Z,6.01
2022-11-24T01:56:33.584Z,6.00
2022-11-24T01:56:45.055Z,6.01
2022-11-24T01:56:55.055Z,6.00
2022-11-24T01:57:03.597Z,6.01
2022-11-24T01:57:13.584Z,6.02
2022-11-24T01:57:25.035Z,6.00
2022-11-24T01:57:35.030Z,6.00
2022-11-24T01:57:45.035Z,6.00
2022-11-24T01:57:55.026Z,6.00
2022-11-24T01:58:05.035Z,6.00
2022-11-24T01:58:15.020Z,6.00
2022-11-24T01:58:23.564Z,5.99
2022-11-24T01:58:33.645Z,6.00
2022-11-24T01:58:43.815Z,5.99
2022-11-24T01:58:53.582Z,5.99
2022-11-24T01:59:03.546Z,5.99
2022-11-24T01:59:14.563Z,5.98
2022-11-24T01:59:23.582Z,5.98
2022-11-24T01:59:35.022Z,5.98
2022-11-24T01:59:45.032Z,5.97
2022-11-24T01:59:55.026Z,5.97
2022-11-24T02:00:04.515Z,5.97
2022-11-24T02:00:15.016Z,5.98
2022-11-24T02:00:23.586Z,5.97
2022-11-24T02:00:33.576Z,5.98
2022-11-24T02:00:44.409Z,5.98
2022-11-24T02:00:55.005Z,5.97
2022-11-24T02:01:05.063Z,5.97
2022-11-24T02:01:13.584Z,5.97
2022-11-24T02:01:24.372Z,5.98
2022-11-24T02:01:33.581Z,5.97
2022-11-24T02:01:43.692Z,5.97
2022-11-24T02:01:53.603Z,5.97
2022-11-24T02:02:05.057Z,5.97
2022-11-24T02:02:15.021Z,5.96
2022-11-24T02:02:23.584Z,5.96
2022-11-24T02:02:35.077Z,5.97
2022-11-24T02:02:45.076Z,5.96
2022-11-24T02:02:53.651Z,5.95
2022-11-24T02:03:05.079Z,5.96
2022-11-24T02:03:14.996Z,5.95
2022-11-24T02:03:25.001Z,5.96
2022-11-24T02:03:33.535Z,5.96
2022-11-24T02:03:43.536Z,5.96
2022-11-24T02:03:54.996Z,5.96
2022-11-24T02:04:03.555Z,5.96
2022-11-24T02:04:13.955Z,5.97
2022-11-24T02:04:23.668Z,5.97
2022-11-24T02:04:34.456Z,5.97
2022-11-24T02:04:44.953Z,5.95
2022-11-24T02:04:54.987Z,5.96
2022-11-24T02:05:04.035Z,5.95
2022-11-24T02:05:14.486Z,5.96
2022-11-24T02:05:23.529Z,5.95
2022-11-24T02:05:34.026Z,5.95
2022-11-24T02:05:43.507Z,5.95
2022-11-24T02:05:53.533Z,5.95
2022-11-24T02:06:04.092Z,5.95
2022-11-24T02:06:14.997Z,5.94
2022-11-24T02:06:24.954Z,5.93
2022-11-24T02:06:34.975Z,5.93
2022-11-24T02:06:44.349Z,5.94
2022-11-24T02:06:53.524Z,5.93
2022-11-24T02:07:05.028Z,5.95
2022-11-24T02:07:15.037Z,5.94
2022-11-24T02:07:23.543Z,5.95
2022-11-24T02:07:34.990Z,5.95
2022-11-24T02:07:43.561Z,5.94
2022-11-24T02:07:53.589Z,5.95
2022-11-24T02:08:03.518Z,5.94
2022-11-24T02:08:14.996Z,5.95
2022-11-24T02:08:24.967Z,5.94
2022-11-24T02:08:34.959Z,5.94
2022-11-24T02:08:43.499Z,5.94
2022-11-24T02:08:54.957Z,5.95
2022-11-24T02:09:04.935Z,5.94
2022-11-24T02:09:14.936Z,5.95
2022-11-24T02:09:24.957Z,5.94
2022-11-24T02:09:34.936Z,5.95
2022-11-24T02:09:43.497Z,5.95
2022-11-24T02:09:53.527Z,5.96
2022-11-24T02:10:03.488Z,5.95
2022-11-24T02:10:13.508Z,5.94
2022-11-24T02:10:24.939Z,5.94
2022-11-24T02:10:33.495Z,5.93
2022-11-24T02:10:43.586Z,5.95
2022-11-24T02:10:54.925Z,5.94
2022-11-24T02:11:04.926Z,5.94
2022-11-24T02:11:14.946Z,5.94
2022-11-24T02:11:23.499Z,5.94
2022-11-24T02:11:34.937Z,5.95
2022-11-24T02:11:43.484Z,5.94
2022-11-24T02:11:54.357Z,5.95
2022-11-24T02:12:04.928Z,5.93
2022-11-24T02:12:13.470Z,5.93
2022-11-24T02:12:24.942Z,5.95
2022-11-24T02:12:33.462Z,5.94
2022-11-24T02:12:44.931Z,5.96
2022-11-24T02:12:53.468Z,5.94
2022-11-24T02:13:04.965Z,5.95